Terminal Aerodrome Forecast
Issued by NWS

Home | Current Version | Previous Version | Text Only | Print | Product List | Glossary On
Versions: 1 2 3 4 5 6 7 8 9 10 11 12 13 14 15 16
000
FTUS43 KUNR 302320
TAFGCC
TAF
KGCC 302320Z 3100/3124 33015KT P6SM BKN060
      TEMPO 3100/3101 P6SM -TSRA BKN050CB
     FM310300 30011KT P6SM BKN100
     FM310600 27009KT P6SM SCT150=

USA.gov is the U.S. government's official web portal to all federal, state and local government web resources and services.